METAR AND TAF INFORMATION
METAR FOR ESGG
ADDS - METARS form results

(0230 UTC 13 December 2018)
Data provider http://aviationweather.gov/metar/data/
 
METAR text: ESGG 130220Z 03006KT 9999 FEW015 M04/M05 Q1031 R03/19//95
Conditions at: ESGG (GOTEBORG/LANDVET, SE) observed 0220 UTC 13 December 2018
Temperature: -4.0°C (25°F)
Dewpoint: -5.0°C (23°F) [RH = 93%]
Pressure (altimeter): 30.44 inches Hg (1031.0 mb)
Winds: from the NNE (30 degrees) at 7 MPH (6 knots; 3.1 m/s)
Visibility: 6 or more miles (10+ km)
Ceiling: at least 12,000 feet AGL
Clouds: few clouds at 1500 feet AGL
Weather: no significant weather observed at this time

METAR text: ESGG 130150Z 04004KT 9999 SCT012 M03/M05 Q1031 R03/19//95
Conditions at: ESGG (GOTEBORG/LANDVET, SE) observed 0150 UTC 13 December 2018
Temperature: -3.0°C (27°F)
Dewpoint: -5.0°C (23°F) [RH = 86%]
Pressure (altimeter): 30.44 inches Hg (1031.0 mb)
Winds: from the NE (40 degrees) at 5 MPH (4 knots; 2.1 m/s)
Visibility: 6 or more miles (10+ km)
Ceiling: at least 12,000 feet AGL
Clouds: scattered clouds at 1200 feet AGL
Weather: no significant weather observed at this time

Forecast for: ESGG (GOTEBORG/LANDVET, SE)
Text: TAF ESGG 122330Z 1300/1324 06009KT 9999 SCT005 BKN015
Forecast period: 0000 UTC 13 December 2018 to 0000 UTC 14 December 2018
Forecast type: FROM: standard forecast or significant change
Winds: from the ENE (60 degrees) at 10 MPH (9 knots; 4.6 m/s)
Visibility: 6 or more miles 10+ km)
Ceiling: 1500 feet AGL
Clouds: scattered clouds at 500 feet AGL
broken clouds at 1500 feet AGL
Weather: no significant weather forecast for this period
Text: TEMPO 1300/1310 BKN005
Forecast period: 0000 to 1000 UTC 13 December 2018
Forecast type: TEMPORARY: The following changes expected for less than half the time period
Visibility: missing
Ceiling: 500 feet AGL
Clouds: broken clouds at 500 feet AGL
Weather: no significant weather forecast for this period

 AIRPORT MAP

 RUNWAY INFORMATION
Runway 03 Runway length 10823 ft Runway width 148 ft
Runway elevation 478 ft Runway displaced threshold 0 ft Runway heading 26
Runway 21 Runway length 10823 ft Runway width 148 ft
Runway elevation 506 ft Runway displaced threshold 0 ft Runway heading 206

 AIRPORT FREQUENCIES
Type ATIS Name ATIS Frequency 118.375 MHZ
Type GCCD Name GND Frequency 121.9 MHZ
Type TCA Name GOTEBORG A Frequency 124.675 MHZ
Type TWR Name TWR Frequency 118.6 MHZ

 AIRPORT NEAR NAVIGATION AIDS
Type VOR-DME Name Landvetter Frequency 114600 KHZ



Powered by Virtual Airlines Manager [v2.6.1]